sensor_id;sensor_type;location;lat;lon;timestamp;temperature;humidity
17152;DHT22;8691;50.828;4.700;2023-05-10T00:00:59;13.20;99.90
17152;DHT22;8691;50.828;4.700;2023-05-10T00:03:27;13.10;99.90
17152;DHT22;8691;50.828;4.700;2023-05-10T00:05:53;13.10;99.90
17152;DHT22;8691;50.828;4.700;2023-05-10T00:08:20;13.10;99.90
17152;DHT22;8691;50.828;4.700;2023-05-10T00:10:47;13.10;99.90
17152;DHT22;8691;50.828;4.700;2023-05-10T00:13:13;13.00;99.90
17152;DHT22;8691;50.828;4.700;2023-05-10T00:15:40;13.00;99.90
17152;DHT22;8691;50.828;4.700;2023-05-10T00:18:07;13.00;99.90
17152;DHT22;8691;50.828;4.700;2023-05-10T00:20:33;13.00;99.90
17152;DHT22;8691;50.828;4.700;2023-05-10T00:23:00;13.00;99.90
17152;DHT22;8691;50.828;4.700;2023-05-10T00:25:26;13.00;99.90
17152;DHT22;8691;50.828;4.700;2023-05-10T00:27:54;13.00;99.90
17152;DHT22;8691;50.828;4.700;2023-05-10T00:30:20;13.00;99.90
17152;DHT22;8691;50.828;4.700;2023-05-10T00:32:48;13.00;99.90
17152;DHT22;8691;50.828;4.700;2023-05-10T00:35:15;13.00;99.90
17152;DHT22;8691;50.828;4.700;2023-05-10T00:37:41;13.10;99.90
17152;DHT22;8691;50.828;4.700;2023-05-10T00:40:08;13.10;99.90
17152;DHT22;8691;50.828;4.700;2023-05-10T00:42:34;13.10;99.90
17152;DHT22;8691;50.828;4.700;2023-05-10T00:45:01;13.10;99.90
17152;DHT22;8691;50.828;4.700;2023-05-10T00:47:27;13.10;99.90
17152;DHT22;8691;50.828;4.700;2023-05-10T00:49:54;13.10;99.90
17152;DHT22;8691;50.828;4.700;2023-05-10T00:52:21;13.10;99.90
17152;DHT22;8691;50.828;4.700;2023-05-10T00:54:47;13.10;99.90
17152;DHT22;8691;50.828;4.700;2023-05-10T00:57:15;13.10;99.90
17152;DHT22;8691;50.828;4.700;2023-05-10T00:59:41;13.10;99.90
17152;DHT22;8691;50.828;4.700;2023-05-10T01:02:09;13.10;99.90
17152;DHT22;8691;50.828;4.700;2023-05-10T01:04:35;13.10;99.90
17152;DHT22;8691;50.828;4.700;2023-05-10T01:07:02;13.10;99.90
17152;DHT22;8691;50.828;4.700;2023-05-10T01:09:29;13.10;99.90
17152;DHT22;8691;50.828;4.700;2023-05-10T01:11:55;13.10;99.90
17152;DHT22;8691;50.828;4.700;2023-05-10T01:14:22;13.10;99.90
17152;DHT22;8691;50.828;4.700;2023-05-10T01:16:48;13.10;99.90
17152;DHT22;8691;50.828;4.700;2023-05-10T01:19:20;13.10;99.90
17152;DHT22;8691;50.828;4.700;2023-05-10T01:21:58;13.10;99.90
17152;DHT22;8691;50.828;4.700;2023-05-10T01:30:16;13.10;99.90
17152;DHT22;8691;50.828;4.700;2023-05-10T01:32:52;13.10;99.90
17152;DHT22;8691;50.828;4.700;2023-05-10T01:35:17;13.00;99.90
17152;DHT22;8691;50.828;4.700;2023-05-10T01:37:47;13.00;99.90
17152;DHT22;8691;50.828;4.700;2023-05-10T01:40:39;13.00;99.90
17152;DHT22;8691;50.828;4.700;2023-05-10T01:43:05;12.90;99.90
17152;DHT22;8691;50.828;4.700;2023-05-10T01:45:38;12.90;99.90
17152;DHT22;8691;50.828;4.700;2023-05-10T01:48:10;12.90;99.90
17152;DHT22;8691;50.828;4.700;2023-05-10T01:50:37;12.90;99.90
17152;DHT22;8691;50.828;4.700;2023-05-10T01:53:04;13.00;99.90
17152;DHT22;8691;50.828;4.700;2023-05-10T01:55:30;13.00;99.90
17152;DHT22;8691;50.828;4.700;2023-05-10T01:57:59;13.00;99.90
17152;DHT22;8691;50.828;4.700;2023-05-10T02:00:23;13.00;99.90
17152;DHT22;8691;50.828;4.700;2023-05-10T02:02:50;13.00;99.90
17152;DHT22;8691;50.828;4.700;2023-05-10T02:05:16;13.00;99.90
17152;DHT22;8691;50.828;4.700;2023-05-10T02:07:43;13.00;99.90
17152;DHT22;8691;50.828;4.700;2023-05-10T02:10:10;13.00;99.90
17152;DHT22;8691;50.828;4.700;2023-05-10T02:12:36;13.10;99.90
17152;DHT22;8691;50.828;4.700;2023-05-10T02:15:04;13.10;99.90
17152;DHT22;8691;50.828;4.700;2023-05-10T02:17:30;13.10;99.90
17152;DHT22;8691;50.828;4.700;2023-05-10T02:19:57;13.20;99.90
17152;DHT22;8691;50.828;4.700;2023-05-10T02:22:24;13.10;99.90
17152;DHT22;8691;50.828;4.700;2023-05-10T02:24:51;13.10;99.90
17152;DHT22;8691;50.828;4.700;2023-05-10T02:27:17;13.10;99.90
17152;DHT22;8691;50.828;4.700;2023-05-10T02:29:45;13.20;99.90
17152;DHT22;8691;50.828;4.700;2023-05-10T02:32:12;13.20;99.90
17152;DHT22;8691;50.828;4.700;2023-05-10T02:34:39;13.20;99.90
17152;DHT22;8691;50.828;4.700;2023-05-10T02:37:05;13.20;99.90
17152;DHT22;8691;50.828;4.700;2023-05-10T02:39:33;13.20;99.90
17152;DHT22;8691;50.828;4.700;2023-05-10T02:41:59;13.20;99.90
17152;DHT22;8691;50.828;4.700;2023-05-10T02:44:26;13.20;99.90
17152;DHT22;8691;50.828;4.700;2023-05-10T02:46:53;13.20;99.90
17152;DHT22;8691;50.828;4.700;2023-05-10T02:49:19;13.20;99.90
17152;DHT22;8691;50.828;4.700;2023-05-10T02:51:50;13.20;99.90
17152;DHT22;8691;50.828;4.700;2023-05-10T02:54:18;13.20;99.90
17152;DHT22;8691;50.828;4.700;2023-05-10T02:56:45;13.20;99.90
17152;DHT22;8691;50.828;4.700;2023-05-10T02:59:09;13.20;99.90
17152;DHT22;8691;50.828;4.700;2023-05-10T03:01:36;13.20;99.90
17152;DHT22;8691;50.828;4.700;2023-05-10T03:04:03;13.20;99.90
17152;DHT22;8691;50.828;4.700;2023-05-10T03:06:29;13.20;99.90
17152;DHT22;8691;50.828;4.700;2023-05-10T03:08:56;13.20;99.90
17152;DHT22;8691;50.828;4.700;2023-05-10T03:14:16;13.20;99.90
17152;DHT22;8691;50.828;4.700;2023-05-10T03:16:46;13.20;99.90
17152;DHT22;8691;50.828;4.700;2023-05-10T03:19:26;13.20;99.90
17152;DHT22;8691;50.828;4.700;2023-05-10T03:21:51;13.20;99.90
17152;DHT22;8691;50.828;4.700;2023-05-10T03:24:18;13.20;99.90
17152;DHT22;8691;50.828;4.700;2023-05-10T03:26:44;13.20;99.90
17152;DHT22;8691;50.828;4.700;2023-05-10T03:29:12;13.20;99.90
17152;DHT22;8691;50.828;4.700;2023-05-10T03:31:38;13.20;99.90
17152;DHT22;8691;50.828;4.700;2023-05-10T03:34:05;13.20;99.90
17152;DHT22;8691;50.828;4.700;2023-05-10T03:36:31;13.10;99.90
17152;DHT22;8691;50.828;4.700;2023-05-10T03:38:59;13.20;99.90
17152;DHT22;8691;50.828;4.700;2023-05-10T03:41:27;13.20;99.90
17152;DHT22;8691;50.828;4.700;2023-05-10T03:43:53;13.20;99.90
17152;DHT22;8691;50.828;4.700;2023-05-10T03:46:21;13.10;99.90
17152;DHT22;8691;50.828;4.700;2023-05-10T03:48:47;13.10;99.90
17152;DHT22;8691;50.828;4.700;2023-05-10T03:51:15;13.00;99.90
17152;DHT22;8691;50.828;4.700;2023-05-10T03:53:41;13.00;99.90
17152;DHT22;8691;50.828;4.700;2023-05-10T03:56:09;13.10;99.90
17152;DHT22;8691;50.828;4.700;2023-05-10T03:58:35;13.00;99.90
17152;DHT22;8691;50.828;4.700;2023-05-10T04:01:03;13.00;99.90
17152;DHT22;8691;50.828;4.700;2023-05-10T04:03:29;13.00;99.90
17152;DHT22;8691;50.828;4.700;2023-05-10T04:05:59;13.00;99.90
17152;DHT22;8691;50.828;4.700;2023-05-10T04:08:25;13.00;99.90
17152;DHT22;8691;50.828;4.700;2023-05-10T04:10:52;13.00;99.90
17152;DHT22;8691;50.828;4.700;2023-05-10T04:13:19;13.00;99.90
17152;DHT22;8691;50.828;4.700;2023-05-10T04:15:45;13.10;99.90
17152;DHT22;8691;50.828;4.700;2023-05-10T04:18:12;13.00;99.90
17152;DHT22;8691;50.828;4.700;2023-05-10T04:20:39;13.00;99.90
17152;DHT22;8691;50.828;4.700;2023-05-10T04:23:05;13.00;99.90
17152;DHT22;8691;50.828;4.700;2023-05-10T04:25:33;12.90;99.90
17152;DHT22;8691;50.828;4.700;2023-05-10T04:27:58;12.90;99.90
17152;DHT22;8691;50.828;4.700;2023-05-10T04:30:26;12.90;99.90
17152;DHT22;8691;50.828;4.700;2023-05-10T04:32:52;12.90;99.90
17152;DHT22;8691;50.828;4.700;2023-05-10T04:35:20;12.90;99.90
17152;DHT22;8691;50.828;4.700;2023-05-10T04:37:46;12.90;99.90
17152;DHT22;8691;50.828;4.700;2023-05-10T04:40:14;12.90;99.90
17152;DHT22;8691;50.828;4.700;2023-05-10T04:42:40;12.90;99.90
17152;DHT22;8691;50.828;4.700;2023-05-10T04:45:10;12.90;99.90
17152;DHT22;8691;50.828;4.700;2023-05-10T04:47:36;12.90;99.90
17152;DHT22;8691;50.828;4.700;2023-05-10T04:50:03;12.90;99.90
17152;DHT22;8691;50.828;4.700;2023-05-10T04:52:29;13.00;99.90
17152;DHT22;8691;50.828;4.700;2023-05-10T04:54:56;13.00;99.90
17152;DHT22;8691;50.828;4.700;2023-05-10T04:57:23;13.10;99.90
17152;DHT22;8691;50.828;4.700;2023-05-10T04:59:50;13.10;99.90
17152;DHT22;8691;50.828;4.700;2023-05-10T05:02:17;13.10;99.90
17152;DHT22;8691;50.828;4.700;2023-05-10T05:04:43;13.10;99.90
17152;DHT22;8691;50.828;4.700;2023-05-10T05:07:10;13.10;99.90
17152;DHT22;8691;50.828;4.700;2023-05-10T05:09:37;13.10;99.90
17152;DHT22;8691;50.828;4.700;2023-05-10T05:12:04;13.20;99.90
17152;DHT22;8691;50.828;4.700;2023-05-10T05:14:31;13.30;99.90
17152;DHT22;8691;50.828;4.700;2023-05-10T05:16:58;13.50;99.90
17152;DHT22;8691;50.828;4.700;2023-05-10T05:19:25;13.50;99.90
17152;DHT22;8691;50.828;4.700;2023-05-10T05:21:52;13.50;99.90
17152;DHT22;8691;50.828;4.700;2023-05-10T05:24:18;13.50;99.90
17152;DHT22;8691;50.828;4.700;2023-05-10T05:26:45;13.50;99.90
17152;DHT22;8691;50.828;4.700;2023-05-10T05:29:12;13.50;99.90
17152;DHT22;8691;50.828;4.700;2023-05-10T05:31:38;13.60;99.90
17152;DHT22;8691;50.828;4.700;2023-05-10T05:34:06;13.60;99.90
17152;DHT22;8691;50.828;4.700;2023-05-10T05:36:35;13.50;99.90
17152;DHT22;8691;50.828;4.700;2023-05-10T05:38:59;13.60;99.90
17152;DHT22;8691;50.828;4.700;2023-05-10T05:41:25;13.60;99.90
17152;DHT22;8691;50.828;4.700;2023-05-10T05:43:52;13.60;99.90
17152;DHT22;8691;50.828;4.700;2023-05-10T05:46:19;13.60;99.90
17152;DHT22;8691;50.828;4.700;2023-05-10T05:48:45;13.60;99.90
17152;DHT22;8691;50.828;4.700;2023-05-10T05:51:12;13.60;99.90
17152;DHT22;8691;50.828;4.700;2023-05-10T05:53:38;13.60;99.90
17152;DHT22;8691;50.828;4.700;2023-05-10T05:56:05;13.60;99.90
17152;DHT22;8691;50.828;4.700;2023-05-10T05:58:32;13.70;99.90
17152;DHT22;8691;50.828;4.700;2023-05-10T06:00:59;13.80;99.90
17152;DHT22;8691;50.828;4.700;2023-05-10T06:03:26;13.80;99.90
17152;DHT22;8691;50.828;4.700;2023-05-10T06:05:52;13.80;99.90
17152;DHT22;8691;50.828;4.700;2023-05-10T06:08:19;13.80;99.90
17152;DHT22;8691;50.828;4.700;2023-05-10T06:10:45;13.80;99.90
17152;DHT22;8691;50.828;4.700;2023-05-10T06:13:12;13.80;99.90
17152;DHT22;8691;50.828;4.700;2023-05-10T06:15:39;13.80;99.90
17152;DHT22;8691;50.828;4.700;2023-05-10T06:18:05;13.80;99.90
17152;DHT22;8691;50.828;4.700;2023-05-10T06:20:32;13.80;99.90
17152;DHT22;8691;50.828;4.700;2023-05-10T06:22:59;13.90;99.90
17152;DHT22;8691;50.828;4.700;2023-05-10T06:25:26;13.90;99.90
17152;DHT22;8691;50.828;4.700;2023-05-10T06:27:53;13.90;99.90
17152;DHT22;8691;50.828;4.700;2023-05-10T06:30:20;13.90;99.90
17152;DHT22;8691;50.828;4.700;2023-05-10T06:32:47;13.80;99.90
17152;DHT22;8691;50.828;4.700;2023-05-10T06:35:14;13.80;99.90
17152;DHT22;8691;50.828;4.700;2023-05-10T06:37:41;13.70;99.90
17152;DHT22;8691;50.828;4.700;2023-05-10T06:40:08;13.70;99.90
17152;DHT22;8691;50.828;4.700;2023-05-10T06:42:35;13.70;99.90
17152;DHT22;8691;50.828;4.700;2023-05-10T06:45:01;13.70;99.90
17152;DHT22;8691;50.828;4.700;2023-05-10T06:47:29;13.50;99.90
17152;DHT22;8691;50.828;4.700;2023-05-10T06:49:55;13.50;99.90
17152;DHT22;8691;50.828;4.700;2023-05-10T06:52:23;13.60;99.90
17152;DHT22;8691;50.828;4.700;2023-05-10T06:54:49;13.60;99.90
17152;DHT22;8691;50.828;4.700;2023-05-10T06:57:17;13.60;99.90
17152;DHT22;8691;50.828;4.700;2023-05-10T06:59:43;13.60;99.90
17152;DHT22;8691;50.828;4.700;2023-05-10T07:02:11;13.80;99.90
17152;DHT22;8691;50.828;4.700;2023-05-10T07:04:37;13.70;99.90
17152;DHT22;8691;50.828;4.700;2023-05-10T07:07:05;14.00;99.90
17152;DHT22;8691;50.828;4.700;2023-05-10T07:09:31;13.90;99.90
17152;DHT22;8691;50.828;4.700;2023-05-10T07:11:59;14.00;99.90
17152;DHT22;8691;50.828;4.700;2023-05-10T07:14:25;14.00;99.90
17152;DHT22;8691;50.828;4.700;2023-05-10T07:16:52;14.00;99.90
17152;DHT22;8691;50.828;4.700;2023-05-10T07:19:19;14.00;99.90
17152;DHT22;8691;50.828;4.700;2023-05-10T07:21:45;14.10;99.90
17152;DHT22;8691;50.828;4.700;2023-05-10T07:24:12;14.20;99.90
17152;DHT22;8691;50.828;4.700;2023-05-10T07:26:38;14.40;99.90
17152;DHT22;8691;50.828;4.700;2023-05-10T07:29:05;14.50;99.90
17152;DHT22;8691;50.828;4.700;2023-05-10T07:31:32;14.50;99.90
17152;DHT22;8691;50.828;4.700;2023-05-10T07:33:58;14.40;99.90
17152;DHT22;8691;50.828;4.700;2023-05-10T07:36:25;14.50;99.90
17152;DHT22;8691;50.828;4.700;2023-05-10T07:38:51;14.50;99.90
17152;DHT22;8691;50.828;4.700;2023-05-10T07:41:18;14.40;99.90
17152;DHT22;8691;50.828;4.700;2023-05-10T07:43:45;14.20;99.90
17152;DHT22;8691;50.828;4.700;2023-05-10T07:46:11;14.20;99.90
17152;DHT22;8691;50.828;4.700;2023-05-10T07:48:38;14.10;99.90
17152;DHT22;8691;50.828;4.700;2023-05-10T07:51:05;14.20;99.90
17152;DHT22;8691;50.828;4.700;2023-05-10T07:53:31;14.20;99.90
17152;DHT22;8691;50.828;4.700;2023-05-10T07:55:58;14.30;99.90
17152;DHT22;8691;50.828;4.700;2023-05-10T07:58:24;14.20;99.90
17152;DHT22;8691;50.828;4.700;2023-05-10T08:00:51;14.20;99.90
17152;DHT22;8691;50.828;4.700;2023-05-10T08:03:18;14.10;99.90
17152;DHT22;8691;50.828;4.700;2023-05-10T08:05:44;14.10;99.90
17152;DHT22;8691;50.828;4.700;2023-05-10T08:08:11;14.10;99.90
17152;DHT22;8691;50.828;4.700;2023-05-10T08:10:37;14.10;99.90
17152;DHT22;8691;50.828;4.700;2023-05-10T08:13:04;14.10;99.90
17152;DHT22;8691;50.828;4.700;2023-05-10T08:15:31;14.10;99.90
17152;DHT22;8691;50.828;4.700;2023-05-10T08:17:57;14.20;99.90
17152;DHT22;8691;50.828;4.700;2023-05-10T08:20:24;14.30;99.90
17152;DHT22;8691;50.828;4.700;2023-05-10T08:22:51;14.30;99.90
17152;DHT22;8691;50.828;4.700;2023-05-10T08:25:17;14.20;99.90
17152;DHT22;8691;50.828;4.700;2023-05-10T08:27:44;14.20;99.90
17152;DHT22;8691;50.828;4.700;2023-05-10T08:30:10;14.10;99.90
17152;DHT22;8691;50.828;4.700;2023-05-10T08:32:37;14.10;99.90
17152;DHT22;8691;50.828;4.700;2023-05-10T08:35:04;14.10;99.90
17152;DHT22;8691;50.828;4.700;2023-05-10T08:37:30;14.00;99.90
17152;DHT22;8691;50.828;4.700;2023-05-10T08:39:57;14.00;99.90
17152;DHT22;8691;50.828;4.700;2023-05-10T08:42:25;14.00;99.90
17152;DHT22;8691;50.828;4.700;2023-05-10T08:44:51;14.00;99.90
17152;DHT22;8691;50.828;4.700;2023-05-10T08:47:18;14.10;99.90
17152;DHT22;8691;50.828;4.700;2023-05-10T08:49:45;14.10;99.90
17152;DHT22;8691;50.828;4.700;2023-05-10T08:52:12;14.30;99.90
17152;DHT22;8691;50.828;4.700;2023-05-10T08:54:39;14.20;99.90
17152;DHT22;8691;50.828;4.700;2023-05-10T08:57:06;14.30;99.90
17152;DHT22;8691;50.828;4.700;2023-05-10T08:59:33;14.30;99.90
17152;DHT22;8691;50.828;4.700;2023-05-10T09:01:59;14.30;99.90
17152;DHT22;8691;50.828;4.700;2023-05-10T09:04:27;14.40;99.90
17152;DHT22;8691;50.828;4.700;2023-05-10T09:06:53;14.30;99.90
17152;DHT22;8691;50.828;4.700;2023-05-10T09:09:19;14.30;99.90
17152;DHT22;8691;50.828;4.700;2023-05-10T09:11:46;14.20;99.90
17152;DHT22;8691;50.828;4.700;2023-05-10T09:14:13;14.20;99.90
17152;DHT22;8691;50.828;4.700;2023-05-10T09:16:39;14.20;99.90
17152;DHT22;8691;50.828;4.700;2023-05-10T09:19:06;14.10;99.90
17152;DHT22;8691;50.828;4.700;2023-05-10T09:21:33;14.20;99.90
17152;DHT22;8691;50.828;4.700;2023-05-10T09:24:02;14.20;99.90
17152;DHT22;8691;50.828;4.700;2023-05-10T09:26:26;14.20;99.90
17152;DHT22;8691;50.828;4.700;2023-05-10T09:28:54;14.30;99.90
17152;DHT22;8691;50.828;4.700;2023-05-10T09:31:20;14.30;99.90
17152;DHT22;8691;50.828;4.700;2023-05-10T09:33:47;14.30;99.90
17152;DHT22;8691;50.828;4.700;2023-05-10T09:36:13;14.30;99.90
17152;DHT22;8691;50.828;4.700;2023-05-10T09:41:18;14.20;99.90
17152;DHT22;8691;50.828;4.700;2023-05-10T09:43:41;14.20;99.90
17152;DHT22;8691;50.828;4.700;2023-05-10T09:46:11;14.10;99.90
17152;DHT22;8691;50.828;4.700;2023-05-10T09:48:45;14.20;99.90
17152;DHT22;8691;50.828;4.700;2023-05-10T09:51:10;14.20;99.90
17152;DHT22;8691;50.828;4.700;2023-05-10T09:53:36;14.30;99.90
17152;DHT22;8691;50.828;4.700;2023-05-10T09:56:03;14.30;99.90
17152;DHT22;8691;50.828;4.700;2023-05-10T09:58:30;14.40;99.90
17152;DHT22;8691;50.828;4.700;2023-05-10T10:00:57;14.40;99.90
17152;DHT22;8691;50.828;4.700;2023-05-10T10:03:24;14.50;99.90
17152;DHT22;8691;50.828;4.700;2023-05-10T10:05:51;14.50;99.90
17152;DHT22;8691;50.828;4.700;2023-05-10T10:08:18;14.50;99.90
17152;DHT22;8691;50.828;4.700;2023-05-10T10:10:45;14.50;99.90
17152;DHT22;8691;50.828;4.700;2023-05-10T10:13:13;14.60;99.90
17152;DHT22;8691;50.828;4.700;2023-05-10T10:15:39;14.60;99.90
17152;DHT22;8691;50.828;4.700;2023-05-10T10:18:06;14.70;99.90
17152;DHT22;8691;50.828;4.700;2023-05-10T10:20:33;14.70;99.90
17152;DHT22;8691;50.828;4.700;2023-05-10T10:23:00;14.90;99.90
17152;DHT22;8691;50.828;4.700;2023-05-10T10:25:27;14.90;99.90
17152;DHT22;8691;50.828;4.700;2023-05-10T10:30:38;15.30;99.90
17152;DHT22;8691;50.828;4.700;2023-05-10T10:35:58;15.30;99.90
17152;DHT22;8691;50.828;4.700;2023-05-10T10:38:23;15.40;99.90
17152;DHT22;8691;50.828;4.700;2023-05-10T10:41:01;15.40;99.90
17152;DHT22;8691;50.828;4.700;2023-05-10T10:43:26;15.40;99.90
17152;DHT22;8691;50.828;4.700;2023-05-10T10:46:14;15.40;99.90
17152;DHT22;8691;50.828;4.700;2023-05-10T10:48:51;15.40;99.90
17152;DHT22;8691;50.828;4.700;2023-05-10T10:51:16;15.70;99.90
17152;DHT22;8691;50.828;4.700;2023-05-10T10:53:43;15.90;99.90
17152;DHT22;8691;50.828;4.700;2023-05-10T10:56:12;16.00;99.90
17152;DHT22;8691;50.828;4.700;2023-05-10T10:58:39;16.40;99.90
17152;DHT22;8691;50.828;4.700;2023-05-10T11:01:15;17.00;99.90
17152;DHT22;8691;50.828;4.700;2023-05-10T11:03:54;17.00;99.90
17152;DHT22;8691;50.828;4.700;2023-05-10T11:06:08;17.30;99.90
17152;DHT22;8691;50.828;4.700;2023-05-10T11:08:41;17.90;99.90
17152;DHT22;8691;50.828;4.700;2023-05-10T11:11:05;18.30;99.90
17152;DHT22;8691;50.828;4.700;2023-05-10T11:13:41;18.50;99.90
17152;DHT22;8691;50.828;4.700;2023-05-10T11:16:20;18.80;99.90
17152;DHT22;8691;50.828;4.700;2023-05-10T11:19:06;18.80;99.90
17152;DHT22;8691;50.828;4.700;2023-05-10T11:21:31;19.10;99.90
17152;DHT22;8691;50.828;4.700;2023-05-10T11:23:58;19.40;99.90
17152;DHT22;8691;50.828;4.700;2023-05-10T11:26:24;19.40;99.90
17152;DHT22;8691;50.828;4.700;2023-05-10T11:28:51;19.40;99.90
17152;DHT22;8691;50.828;4.700;2023-05-10T11:31:18;19.30;99.90
17152;DHT22;8691;50.828;4.700;2023-05-10T11:33:44;19.30;99.90
17152;DHT22;8691;50.828;4.700;2023-05-10T11:36:14;19.20;99.90
17152;DHT22;8691;50.828;4.700;2023-05-10T11:38:41;19.20;99.90
17152;DHT22;8691;50.828;4.700;2023-05-10T11:41:10;19.10;99.90
17152;DHT22;8691;50.828;4.700;2023-05-10T11:43:40;19.40;99.90
17152;DHT22;8691;50.828;4.700;2023-05-10T11:46:10;19.40;99.90
17152;DHT22;8691;50.828;4.700;2023-05-10T11:48:38;19.20;99.90
17152;DHT22;8691;50.828;4.700;2023-05-10T11:51:03;19.10;99.90
17152;DHT22;8691;50.828;4.700;2023-05-10T11:53:31;19.10;99.90
17152;DHT22;8691;50.828;4.700;2023-05-10T11:56:02;19.00;99.90
17152;DHT22;8691;50.828;4.700;2023-05-10T11:58:23;19.10;99.90
17152;DHT22;8691;50.828;4.700;2023-05-10T12:00:50;19.40;99.90
17152;DHT22;8691;50.828;4.700;2023-05-10T12:03:17;19.30;99.90
17152;DHT22;8691;50.828;4.700;2023-05-10T12:05:44;19.40;99.90
17152;DHT22;8691;50.828;4.700;2023-05-10T12:08:14;19.50;99.90
17152;DHT22;8691;50.828;4.700;2023-05-10T12:10:40;19.30;99.90
17152;DHT22;8691;50.828;4.700;2023-05-10T12:13:16;19.40;99.90
17152;DHT22;8691;50.828;4.700;2023-05-10T12:15:42;19.60;99.90
17152;DHT22;8691;50.828;4.700;2023-05-10T12:18:09;19.70;99.90
17152;DHT22;8691;50.828;4.700;2023-05-10T12:20:35;19.70;99.90
17152;DHT22;8691;50.828;4.700;2023-05-10T12:23:02;19.70;99.90
17152;DHT22;8691;50.828;4.700;2023-05-10T12:25:30;19.70;99.90
17152;DHT22;8691;50.828;4.700;2023-05-10T12:27:57;19.70;99.90
17152;DHT22;8691;50.828;4.700;2023-05-10T12:30:24;19.60;99.90
17152;DHT22;8691;50.828;4.700;2023-05-10T12:32:50;19.60;99.90
17152;DHT22;8691;50.828;4.700;2023-05-10T12:35:17;19.40;99.90
17152;DHT22;8691;50.828;4.700;2023-05-10T12:37:44;19.30;99.90
17152;DHT22;8691;50.828;4.700;2023-05-10T12:40:11;19.60;99.90
17152;DHT22;8691;50.828;4.700;2023-05-10T12:42:38;19.60;99.90
17152;DHT22;8691;50.828;4.700;2023-05-10T12:45:06;19.90;99.90
17152;DHT22;8691;50.828;4.700;2023-05-10T12:47:32;19.90;99.90
17152;DHT22;8691;50.828;4.700;2023-05-10T12:49:59;19.90;99.90
17152;DHT22;8691;50.828;4.700;2023-05-10T12:52:25;19.80;99.90
17152;DHT22;8691;50.828;4.700;2023-05-10T12:54:52;19.80;99.90
17152;DHT22;8691;50.828;4.700;2023-05-10T12:57:22;19.80;99.90
17152;DHT22;8691;50.828;4.700;2023-05-10T12:59:49;19.70;99.90
17152;DHT22;8691;50.828;4.700;2023-05-10T13:02:16;19.70;99.90
17152;DHT22;8691;50.828;4.700;2023-05-10T13:04:45;19.60;99.90
17152;DHT22;8691;50.828;4.700;2023-05-10T13:07:12;19.40;99.90
17152;DHT22;8691;50.828;4.700;2023-05-10T13:09:39;19.20;99.90
17152;DHT22;8691;50.828;4.700;2023-05-10T13:12:06;19.30;99.90
17152;DHT22;8691;50.828;4.700;2023-05-10T13:14:33;19.30;99.90
17152;DHT22;8691;50.828;4.700;2023-05-10T13:16:59;19.40;99.90
17152;DHT22;8691;50.828;4.700;2023-05-10T13:19:26;19.40;99.90
17152;DHT22;8691;50.828;4.700;2023-05-10T13:21:52;19.30;99.90
17152;DHT22;8691;50.828;4.700;2023-05-10T13:24:20;19.30;99.90
17152;DHT22;8691;50.828;4.700;2023-05-10T13:26:47;19.30;99.90
17152;DHT22;8691;50.828;4.700;2023-05-10T13:29:13;19.50;99.90
17152;DHT22;8691;50.828;4.700;2023-05-10T13:31:40;19.50;99.90
17152;DHT22;8691;50.828;4.700;2023-05-10T13:34:07;19.40;99.90
17152;DHT22;8691;50.828;4.700;2023-05-10T13:36:33;19.40;99.90
17152;DHT22;8691;50.828;4.700;2023-05-10T13:39:00;19.50;99.90
17152;DHT22;8691;50.828;4.700;2023-05-10T13:41:27;19.60;99.90
17152;DHT22;8691;50.828;4.700;2023-05-10T13:43:54;19.60;99.90
17152;DHT22;8691;50.828;4.700;2023-05-10T13:46:21;19.60;99.90
17152;DHT22;8691;50.828;4.700;2023-05-10T13:48:48;19.40;99.90
17152;DHT22;8691;50.828;4.700;2023-05-10T13:51:15;19.30;99.90
17152;DHT22;8691;50.828;4.700;2023-05-10T13:53:42;19.40;99.90
17152;DHT22;8691;50.828;4.700;2023-05-10T13:56:09;19.40;99.90
17152;DHT22;8691;50.828;4.700;2023-05-10T13:58:36;19.80;99.90
17152;DHT22;8691;50.828;4.700;2023-05-10T14:01:03;19.80;99.90
17152;DHT22;8691;50.828;4.700;2023-05-10T14:03:30;19.90;99.90
17152;DHT22;8691;50.828;4.700;2023-05-10T14:05:57;19.80;99.90
17152;DHT22;8691;50.828;4.700;2023-05-10T14:08:24;20.00;99.90
17152;DHT22;8691;50.828;4.700;2023-05-10T14:10:51;20.00;99.90
17152;DHT22;8691;50.828;4.700;2023-05-10T14:13:17;20.00;99.90
17152;DHT22;8691;50.828;4.700;2023-05-10T14:15:44;20.10;99.90
17152;DHT22;8691;50.828;4.700;2023-05-10T14:18:10;20.20;99.90
17152;DHT22;8691;50.828;4.700;2023-05-10T14:20:37;20.40;99.90
17152;DHT22;8691;50.828;4.700;2023-05-10T14:23:04;20.10;99.90
17152;DHT22;8691;50.828;4.700;2023-05-10T14:25:31;20.10;99.90
17152;DHT22;8691;50.828;4.700;2023-05-10T14:27:58;20.20;99.90
17152;DHT22;8691;50.828;4.700;2023-05-10T14:30:25;20.20;99.90
17152;DHT22;8691;50.828;4.700;2023-05-10T14:32:52;20.50;99.90
17152;DHT22;8691;50.828;4.700;2023-05-10T14:35:18;20.50;99.90
17152;DHT22;8691;50.828;4.700;2023-05-10T14:37:45;20.50;99.90
17152;DHT22;8691;50.828;4.700;2023-05-10T14:40:12;20.70;99.90
17152;DHT22;8691;50.828;4.700;2023-05-10T14:42:38;20.70;99.90
17152;DHT22;8691;50.828;4.700;2023-05-10T14:45:05;20.90;99.90
17152;DHT22;8691;50.828;4.700;2023-05-10T14:47:32;20.90;99.90
17152;DHT22;8691;50.828;4.700;2023-05-10T14:49:58;20.90;99.90
17152;DHT22;8691;50.828;4.700;2023-05-10T14:52:26;20.50;99.90
17152;DHT22;8691;50.828;4.700;2023-05-10T14:54:52;20.50;99.90
17152;DHT22;8691;50.828;4.700;2023-05-10T14:57:19;20.50;99.90
17152;DHT22;8691;50.828;4.700;2023-05-10T14:59:46;20.20;99.90
17152;DHT22;8691;50.828;4.700;2023-05-10T15:02:13;19.90;99.90
17152;DHT22;8691;50.828;4.700;2023-05-10T15:04:40;19.80;99.90
17152;DHT22;8691;50.828;4.700;2023-05-10T15:07:08;19.70;99.90
17152;DHT22;8691;50.828;4.700;2023-05-10T15:09:35;19.70;99.90
17152;DHT22;8691;50.828;4.700;2023-05-10T15:12:02;19.70;99.90
17152;DHT22;8691;50.828;4.700;2023-05-10T15:14:28;19.80;99.90
17152;DHT22;8691;50.828;4.700;2023-05-10T15:16:55;19.90;99.90
17152;DHT22;8691;50.828;4.700;2023-05-10T15:19:23;20.00;99.90
17152;DHT22;8691;50.828;4.700;2023-05-10T15:21:50;19.90;99.90
17152;DHT22;8691;50.828;4.700;2023-05-10T15:24:16;19.70;99.90
17152;DHT22;8691;50.828;4.700;2023-05-10T15:26:43;19.70;99.90
17152;DHT22;8691;50.828;4.700;2023-05-10T15:29:10;19.60;99.90
17152;DHT22;8691;50.828;4.700;2023-05-10T15:31:37;19.30;99.90
17152;DHT22;8691;50.828;4.700;2023-05-10T15:34:04;19.10;99.90
17152;DHT22;8691;50.828;4.700;2023-05-10T15:36:31;19.00;99.90
17152;DHT22;8691;50.828;4.700;2023-05-10T15:38:57;18.90;99.90
17152;DHT22;8691;50.828;4.700;2023-05-10T15:41:24;18.80;99.90
17152;DHT22;8691;50.828;4.700;2023-05-10T15:43:53;18.70;99.90
17152;DHT22;8691;50.828;4.700;2023-05-10T15:46:19;18.70;99.90
17152;DHT22;8691;50.828;4.700;2023-05-10T15:48:46;18.50;99.90
17152;DHT22;8691;50.828;4.700;2023-05-10T15:51:13;18.30;99.90
17152;DHT22;8691;50.828;4.700;2023-05-10T15:53:39;18.10;99.90
17152;DHT22;8691;50.828;4.700;2023-05-10T15:56:06;17.70;99.90
17152;DHT22;8691;50.828;4.700;2023-05-10T15:58:33;17.30;99.90
17152;DHT22;8691;50.828;4.700;2023-05-10T16:01:00;16.90;99.90